createdAt,value
2022-12-14T00:00:59.417Z,57.60
2022-12-14T00:02:32.917Z,57.50
2022-12-14T00:04:06.420Z,57.50
2022-12-14T00:05:42.432Z,57.50
2022-12-14T00:07:16.593Z,57.60
2022-12-14T00:08:52.619Z,57.70
2022-12-14T00:10:27.436Z,57.70
2022-12-14T00:12:00.901Z,57.70
2022-12-14T00:13:37.187Z,57.60
2022-12-14T00:15:11.416Z,57.70
2022-12-14T00:16:44.617Z,57.60
2022-12-14T00:18:22.334Z,57.50
2022-12-14T00:19:58.395Z,57.50
2022-12-14T00:21:32.830Z,57.50
2022-12-14T00:23:05.995Z,57.60
2022-12-14T00:24:39.994Z,57.70
2022-12-14T00:26:17.517Z,57.60
2022-12-14T00:27:51.509Z,57.60
2022-12-14T00:29:24.897Z,57.60
2022-12-14T00:30:58.435Z,57.60
2022-12-14T00:32:31.807Z,57.70
2022-12-14T00:34:04.974Z,57.70
2022-12-14T00:35:38.170Z,57.70
2022-12-14T00:37:12.829Z,57.70
2022-12-14T00:38:46.436Z,57.70
2022-12-14T00:40:20.720Z,57.70
2022-12-14T00:41:53.761Z,57.70
2022-12-14T00:43:27.068Z,57.70
2022-12-14T00:45:02.148Z,57.70
2022-12-14T00:46:35.404Z,57.70
2022-12-14T00:48:08.543Z,57.70
2022-12-14T00:49:41.922Z,57.70
2022-12-14T00:51:15.622Z,57.60
2022-12-14T00:52:50.037Z,57.70
2022-12-14T00:54:23.228Z,57.70
2022-12-14T00:55:55.481Z,57.80
2022-12-14T00:57:30.589Z,57.70
2022-12-14T00:59:03.724Z,57.80
2022-12-14T01:00:37.006Z,57.70
2022-12-14T01:02:10.279Z,57.70
2022-12-14T01:03:42.930Z,57.80
2022-12-14T01:05:16.208Z,57.90
2022-12-14T01:06:51.702Z,57.90
2022-12-14T01:08:26.247Z,58.00
2022-12-14T01:09:59.342Z,58.00
2022-12-14T01:11:32.597Z,58.00
2022-12-14T01:13:06.337Z,58.00
2022-12-14T01:14:39.429Z,58.00
2022-12-14T01:16:15.725Z,58.10
2022-12-14T01:17:48.845Z,58.30
2022-12-14T01:19:22.011Z,58.30
2022-12-14T01:20:55.105Z,58.30
2022-12-14T01:22:28.414Z,58.40
2022-12-14T01:24:05.710Z,58.40
2022-12-14T01:25:38.858Z,58.50
2022-12-14T01:27:12.184Z,58.40
2022-12-14T01:28:46.588Z,58.40
2022-12-14T01:30:19.836Z,58.60
2022-12-14T01:31:53.043Z,58.60
2022-12-14T01:33:26.599Z,58.60
2022-12-14T01:34:59.922Z,58.60
2022-12-14T01:36:36.474Z,58.60
2022-12-14T01:38:09.572Z,58.70
2022-12-14T01:39:44.120Z,58.70
2022-12-14T01:41:25.860Z,58.70
2022-12-14T01:42:59.021Z,58.70
2022-12-14T01:44:57.695Z,58.70
2022-12-14T01:46:39.307Z,58.80
2022-12-14T01:48:15.046Z,58.80
2022-12-14T01:49:53.940Z,58.80
2022-12-14T01:51:30.498Z,58.80
2022-12-14T01:53:08.561Z,58.80
2022-12-14T01:54:49.402Z,58.80
2022-12-14T01:56:22.767Z,58.80
2022-12-14T01:58:02.639Z,58.80
2022-12-14T01:59:40.584Z,58.90
2022-12-14T02:01:14.711Z,59.00
2022-12-14T02:03:05.408Z,58.90
2022-12-14T02:04:48.276Z,58.80
2022-12-14T02:06:27.681Z,58.90
2022-12-14T02:08:01.420Z,58.80
2022-12-14T02:09:40.552Z,58.70
2022-12-14T02:11:18.122Z,58.80
2022-12-14T02:12:59.303Z,58.80
2022-12-14T02:14:33.756Z,58.80
2022-12-14T02:16:08.037Z,58.80
2022-12-14T02:17:44.625Z,58.90
2022-12-14T02:19:17.778Z,58.80
2022-12-14T02:21:17.395Z,58.80
2022-12-14T02:23:36.787Z,58.80
2022-12-14T02:26:25.831Z,58.80
2022-12-14T02:28:28.081Z,58.90
2022-12-14T02:30:07.498Z,58.90
2022-12-14T02:31:49.657Z,58.80
2022-12-14T02:33:40.305Z,58.70
2022-12-14T02:35:32.719Z,58.70
2022-12-14T02:37:16.085Z,58.50
2022-12-14T02:39:04.818Z,58.60
2022-12-14T02:40:48.807Z,58.50
2022-12-14T02:42:38.822Z,58.50
2022-12-14T02:44:26.488Z,58.30
2022-12-14T02:46:16.498Z,58.30
2022-12-14T02:47:56.138Z,58.20
2022-12-14T02:49:50.941Z,58.10
2022-12-14T02:51:31.714Z,58.20
2022-12-14T02:53:15.811Z,58.00
2022-12-14T02:54:56.896Z,58.00
2022-12-14T02:56:40.087Z,57.90
2022-12-14T02:58:20.167Z,57.90
2022-12-14T03:00:00.232Z,57.90
2022-12-14T03:01:38.952Z,57.80
2022-12-14T03:03:12.224Z,57.80
2022-12-14T03:04:48.658Z,57.70
2022-12-14T03:06:30.489Z,57.60
2022-12-14T03:08:09.641Z,58.20
2022-12-14T03:09:42.932Z,57.60
2022-12-14T03:11:22.017Z,57.50
2022-12-14T03:13:02.796Z,57.60
2022-12-14T03:14:41.640Z,57.60
2022-12-14T03:16:21.004Z,57.60
2022-12-14T03:18:01.188Z,57.70
2022-12-14T03:19:41.552Z,57.60
2022-12-14T03:21:21.279Z,57.70
2022-12-14T03:23:00.762Z,57.60
2022-12-14T03:24:42.145Z,57.70
2022-12-14T03:26:23.749Z,57.70
2022-12-14T03:28:05.144Z,57.80
2022-12-14T03:29:46.520Z,57.80
2022-12-14T03:31:31.420Z,57.80
2022-12-14T03:33:14.379Z,57.70
2022-12-14T03:34:54.283Z,57.70
2022-12-14T03:36:36.458Z,57.80
2022-12-14T03:38:17.482Z,57.80
2022-12-14T03:39:51.160Z,57.90
2022-12-14T03:41:37.479Z,57.90
2022-12-14T03:43:19.408Z,58.00
2022-12-14T03:45:05.034Z,58.00
2022-12-14T03:46:51.941Z,58.10
2022-12-14T03:48:40.149Z,58.00
2022-12-14T03:50:21.842Z,58.00
2022-12-14T03:52:04.283Z,58.00
2022-12-14T03:53:46.420Z,58.00
2022-12-14T03:55:30.542Z,58.10
2022-12-14T03:57:15.215Z,58.10
2022-12-14T03:59:01.976Z,58.10
2022-12-14T04:00:43.678Z,58.10
2022-12-14T04:02:27.167Z,58.00
2022-12-14T04:04:10.451Z,58.00
2022-12-14T04:05:50.501Z,58.00
2022-12-14T04:07:36.917Z,57.90
2022-12-14T04:09:27.981Z,58.00
2022-12-14T04:11:23.451Z,58.00
2022-12-14T04:13:22.912Z,58.10
2022-12-14T04:15:20.715Z,58.00
2022-12-14T04:17:13.475Z,58.60
2022-12-14T04:19:00.935Z,58.10
2022-12-14T04:20:45.124Z,57.90
2022-12-14T04:22:23.855Z,58.00
2022-12-14T04:24:25.891Z,57.90
2022-12-14T04:26:05.695Z,57.90
2022-12-14T04:27:44.737Z,57.80
2022-12-14T04:29:47.079Z,57.90
2022-12-14T04:31:25.230Z,57.90
2022-12-14T04:33:25.961Z,57.90
2022-12-14T04:35:08.022Z,58.00
2022-12-14T04:36:49.682Z,57.90
2022-12-14T04:38:31.716Z,57.90
2022-12-14T04:40:10.827Z,58.00
2022-12-14T04:41:50.734Z,58.60
2022-12-14T04:43:29.756Z,57.90
2022-12-14T04:45:12.813Z,58.10
2022-12-14T04:46:47.627Z,58.00
2022-12-14T04:48:28.317Z,58.10
2022-12-14T04:50:07.081Z,58.20
2022-12-14T04:51:49.819Z,58.20
2022-12-14T04:53:29.926Z,58.30
2022-12-14T04:55:13.289Z,58.30
2022-12-14T04:56:54.339Z,58.40
2022-12-14T04:58:29.835Z,58.40
2022-12-14T05:00:04.789Z,58.40
2022-12-14T05:01:54.606Z,58.40
2022-12-14T05:03:33.790Z,58.30
2022-12-14T05:05:18.437Z,58.30
2022-12-14T05:07:08.006Z,58.30
2022-12-14T05:09:18.682Z,58.30
2022-12-14T05:11:21.899Z,58.30
2022-12-14T05:13:04.299Z,58.30
2022-12-14T05:14:44.959Z,58.20
2022-12-14T05:16:20.896Z,58.20
2022-12-14T05:17:55.150Z,58.20
2022-12-14T05:19:28.404Z,58.20
2022-12-14T05:21:01.654Z,58.20
2022-12-14T05:22:38.692Z,58.20
2022-12-14T05:24:12.544Z,58.30
2022-12-14T05:25:49.090Z,58.30
2022-12-14T05:27:22.537Z,58.40
2022-12-14T05:28:56.854Z,58.40
2022-12-14T05:30:30.861Z,58.40
2022-12-14T05:32:04.746Z,58.50
2022-12-14T05:33:37.850Z,58.50
2022-12-14T05:35:13.725Z,58.40
2022-12-14T05:36:46.881Z,58.50
2022-12-14T05:38:21.371Z,58.50
2022-12-14T05:39:55.399Z,58.50
2022-12-14T05:41:28.507Z,58.30
2022-12-14T05:43:06.575Z,58.40
2022-12-14T05:44:40.002Z,58.50
2022-12-14T05:46:13.342Z,58.30
2022-12-14T05:47:46.720Z,58.30
2022-12-14T05:49:19.821Z,58.30
2022-12-14T05:50:53.176Z,58.30
2022-12-14T05:52:27.226Z,58.30
2022-12-14T05:54:01.850Z,58.50
2022-12-14T05:55:35.137Z,58.30
2022-12-14T05:57:08.360Z,58.30
2022-12-14T05:58:41.572Z,58.30
2022-12-14T06:00:16.419Z,58.30
2022-12-14T06:01:50.956Z,58.40
2022-12-14T06:03:24.716Z,58.40
2022-12-14T06:04:57.948Z,58.30
2022-12-14T06:06:31.134Z,58.40
2022-12-14T06:08:04.753Z,58.40
2022-12-14T06:09:39.753Z,58.40
2022-12-14T06:11:15.360Z,58.50
2022-12-14T06:12:48.671Z,58.60
2022-12-14T06:14:24.137Z,58.50
2022-12-14T06:16:08.092Z,58.60
2022-12-14T06:17:44.748Z,58.70
2022-12-14T06:19:19.112Z,58.60
2022-12-14T06:20:52.228Z,59.30
2022-12-14T06:22:26.257Z,58.70
2022-12-14T06:24:00.498Z,58.70
2022-12-14T06:25:35.239Z,58.80
2022-12-14T06:27:08.452Z,58.70
2022-12-14T06:28:42.411Z,58.70
2022-12-14T06:30:16.951Z,59.40
2022-12-14T06:31:50.117Z,58.70
2022-12-14T06:33:23.461Z,58.70
2022-12-14T06:34:56.568Z,58.70
2022-12-14T06:36:32.920Z,58.60
2022-12-14T06:38:06.080Z,58.80
2022-12-14T06:39:40.614Z,58.70
2022-12-14T06:41:15.601Z,58.70
2022-12-14T06:42:48.948Z,58.70
2022-12-14T06:44:22.274Z,58.50
2022-12-14T06:45:55.640Z,58.70
2022-12-14T06:47:29.028Z,58.70
2022-12-14T06:49:02.382Z,58.70
2022-12-14T06:50:35.620Z,58.70
2022-12-14T06:52:08.688Z,58.60
2022-12-14T06:53:41.829Z,58.50
2022-12-14T06:55:15.335Z,58.60
2022-12-14T06:56:49.940Z,58.60
2022-12-14T06:58:29.423Z,58.60
2022-12-14T07:00:06.404Z,58.50
2022-12-14T07:01:45.889Z,58.70
2022-12-14T07:03:23.264Z,58.50
2022-12-14T07:04:56.382Z,58.60
2022-12-14T07:06:35.474Z,58.60
2022-12-14T07:08:08.781Z,58.60
2022-12-14T07:09:42.259Z,58.50
2022-12-14T07:11:17.662Z,58.50
2022-12-14T07:12:52.224Z,58.60
2022-12-14T07:14:25.349Z,58.50
2022-12-14T07:15:59.903Z,58.60
2022-12-14T07:17:35.712Z,58.70
2022-12-14T07:19:10.822Z,58.70
2022-12-14T07:20:44.708Z,58.80
2022-12-14T07:22:18.206Z,58.80
2022-12-14T07:23:52.752Z,58.70
2022-12-14T07:25:25.887Z,58.80
2022-12-14T07:27:00.359Z,58.70
2022-12-14T07:28:36.794Z,58.70
2022-12-14T07:30:12.429Z,58.70
2022-12-14T07:31:49.295Z,58.80
2022-12-14T07:33:23.269Z,58.70
2022-12-14T07:34:56.392Z,58.70
2022-12-14T07:36:32.778Z,58.70
2022-12-14T07:38:06.696Z,58.80
2022-12-14T07:39:39.896Z,58.70
2022-12-14T07:41:21.835Z,58.80
2022-12-14T07:42:55.654Z,58.80
2022-12-14T07:44:30.314Z,58.70
2022-12-14T07:46:07.040Z,58.80
2022-12-14T07:47:40.341Z,58.90
2022-12-14T07:49:14.537Z,58.80
2022-12-14T07:50:47.687Z,58.80
2022-12-14T07:52:20.837Z,58.70
2022-12-14T07:53:55.142Z,58.80
2022-12-14T07:55:30.030Z,58.80
2022-12-14T07:57:03.361Z,58.80
2022-12-14T07:58:48.474Z,58.80
2022-12-14T08:00:23.790Z,58.90
2022-12-14T08:01:58.841Z,58.80
2022-12-14T08:03:36.952Z,58.80
2022-12-14T08:05:12.819Z,58.60
2022-12-14T08:06:47.872Z,58.90
2022-12-14T08:08:22.717Z,58.90
2022-12-14T08:09:56.603Z,58.80
2022-12-14T08:11:37.013Z,58.70
2022-12-14T08:13:12.043Z,58.80
2022-12-14T08:14:46.699Z,58.90
2022-12-14T08:16:24.406Z,58.90
2022-12-14T08:17:58.563Z,59.00
2022-12-14T08:19:31.921Z,59.40
2022-12-14T08:21:08.751Z,58.90
2022-12-14T08:22:41.871Z,59.00
2022-12-14T08:24:16.708Z,58.90
2022-12-14T08:25:56.000Z,58.90
2022-12-14T08:27:31.539Z,59.10
2022-12-14T08:29:06.054Z,59.00
2022-12-14T08:30:41.774Z,59.70
2022-12-14T08:32:16.337Z,59.00
2022-12-14T08:33:50.925Z,58.90
2022-12-14T08:35:28.069Z,59.10
2022-12-14T08:37:01.195Z,59.00
2022-12-14T08:38:34.424Z,59.00
2022-12-14T08:40:09.393Z,59.00
2022-12-14T08:41:42.960Z,59.10
2022-12-14T08:43:19.041Z,59.00
2022-12-14T08:44:56.511Z,58.90
2022-12-14T08:46:32.353Z,58.80
2022-12-14T08:48:07.685Z,58.90
2022-12-14T08:49:41.283Z,58.90
2022-12-14T08:51:14.602Z,58.90
2022-12-14T08:52:49.261Z,58.90
2022-12-14T08:54:24.225Z,58.90
2022-12-14T08:55:57.386Z,58.90
2022-12-14T08:57:30.684Z,58.90
2022-12-14T08:59:03.839Z,58.90
2022-12-14T09:00:38.568Z,58.80
2022-12-14T09:02:11.820Z,58.90
2022-12-14T09:03:48.854Z,58.80
2022-12-14T09:05:22.707Z,58.80
2022-12-14T09:06:56.484Z,58.70
2022-12-14T09:08:29.858Z,58.80
2022-12-14T09:10:03.184Z,58.70
2022-12-14T09:11:36.529Z,58.80
2022-12-14T09:13:09.630Z,58.80
2022-12-14T09:14:46.453Z,58.80
2022-12-14T09:16:26.238Z,58.80
2022-12-14T09:17:59.521Z,58.80
2022-12-14T09:19:34.065Z,58.80
2022-12-14T09:21:07.957Z,58.70
2022-12-14T09:22:41.330Z,58.80
2022-12-14T09:24:14.581Z,58.80
2022-12-14T09:25:47.910Z,58.70
2022-12-14T09:27:22.311Z,58.80
2022-12-14T09:28:57.992Z,58.70
2022-12-14T09:30:31.238Z,58.70
2022-12-14T09:32:04.859Z,58.50
2022-12-14T09:33:38.860Z,58.40
2022-12-14T09:35:18.966Z,58.50
2022-12-14T09:36:53.244Z,58.50
2022-12-14T09:38:26.504Z,58.50
2022-12-14T09:40:00.793Z,58.50
2022-12-14T09:41:54.096Z,58.60
2022-12-14T09:43:41.188Z,58.70
2022-12-14T09:45:22.647Z,58.70
2022-12-14T09:47:11.905Z,58.70
2022-12-14T09:48:45.745Z,58.70
2022-12-14T09:50:23.313Z,58.70
2022-12-14T09:52:01.321Z,58.70
2022-12-14T09:53:37.430Z,58.70
2022-12-14T09:55:23.537Z,58.60
2022-12-14T09:57:02.743Z,58.50
2022-12-14T09:58:37.362Z,58.40
2022-12-14T10:00:17.843Z,58.40
2022-12-14T10:02:29.911Z,58.30
2022-12-14T10:04:17.020Z,58.30
2022-12-14T10:06:18.822Z,58.30
2022-12-14T10:08:06.466Z,58.30
2022-12-14T10:09:47.624Z,58.30
2022-12-14T10:11:37.446Z,58.10
2022-12-14T10:13:28.061Z,58.00
2022-12-14T10:15:19.739Z,58.10
2022-12-14T10:17:11.374Z,58.20
2022-12-14T10:19:13.835Z,58.10
2022-12-14T10:20:59.983Z,58.10
2022-12-14T10:22:39.649Z,58.20
2022-12-14T10:24:22.063Z,58.20
2022-12-14T10:26:02.956Z,58.30
2022-12-14T10:28:09.339Z,58.40
2022-12-14T10:29:42.152Z,58.50
2022-12-14T10:31:32.577Z,58.60
2022-12-14T10:33:17.923Z,58.60
2022-12-14T10:34:52.299Z,59.30
2022-12-14T10:36:36.832Z,58.60
2022-12-14T10:38:27.167Z,58.60
2022-12-14T10:40:29.179Z,58.60
2022-12-14T10:42:17.905Z,58.60
2022-12-14T10:44:02.876Z,59.20
2022-12-14T10:45:48.045Z,58.70
2022-12-14T10:47:32.944Z,58.70
2022-12-14T10:49:23.454Z,58.70
2022-12-14T10:51:02.931Z,58.70
2022-12-14T10:52:42.711Z,58.70
2022-12-14T10:54:30.857Z,58.80
2022-12-14T10:56:12.437Z,58.90
2022-12-14T10:57:45.845Z,59.00
2022-12-14T10:59:35.169Z,58.80
2022-12-14T11:01:15.950Z,59.20
2022-12-14T11:02:55.160Z,59.20
2022-12-14T11:04:37.015Z,59.10
2022-12-14T11:06:18.225Z,59.00
2022-12-14T11:07:52.975Z,59.00
2022-12-14T11:09:27.656Z,58.80
2022-12-14T11:11:17.011Z,58.90
2022-12-14T11:13:03.071Z,58.70
2022-12-14T11:14:38.275Z,58.60
2022-12-14T11:16:31.754Z,58.40
2022-12-14T11:18:32.203Z,58.20
2022-12-14T11:20:20.617Z,58.10
2022-12-14T11:22:20.113Z,58.10
2022-12-14T11:23:57.096Z,58.00
2022-12-14T11:25:39.774Z,58.00
2022-12-14T11:27:18.271Z,58.10
2022-12-14T11:28:55.683Z,58.00
2022-12-14T11:30:30.398Z,58.10
2022-12-14T11:32:06.645Z,58.10
2022-12-14T11:33:45.629Z,58.10
2022-12-14T11:35:25.616Z,58.10
2022-12-14T11:37:14.510Z,58.10
2022-12-14T11:38:58.924Z,58.10
2022-12-14T11:40:37.982Z,58.30
2022-12-14T11:42:20.138Z,58.30
2022-12-14T11:44:05.612Z,58.20
2022-12-14T11:45:40.261Z,58.20
2022-12-14T11:47:17.060Z,58.20
2022-12-14T11:48:51.084Z,58.20
2022-12-14T11:50:26.579Z,58.10
2022-12-14T11:52:10.155Z,58.10
2022-12-14T11:53:43.376Z,58.10
2022-12-14T11:55:27.032Z,57.90
2022-12-14T11:57:08.531Z,57.90
2022-12-14T11:58:50.346Z,57.90
2022-12-14T12:00:28.481Z,57.90
2022-12-14T12:02:23.129Z,57.90
2022-12-14T12:04:00.445Z,57.90
2022-12-14T12:05:41.447Z,57.90
2022-12-14T12:07:23.052Z,57.80
2022-12-14T12:09:00.397Z,57.90
2022-12-14T12:10:45.086Z,57.90
2022-12-14T12:12:25.058Z,57.90
2022-12-14T12:14:02.557Z,57.80
2022-12-14T12:15:40.850Z,57.80
2022-12-14T12:17:22.472Z,57.90
2022-12-14T12:19:07.880Z,57.90
2022-12-14T12:20:53.884Z,57.80
2022-12-14T12:22:27.340Z,57.80
2022-12-14T12:24:07.262Z,57.80
2022-12-14T12:25:44.873Z,57.90
2022-12-14T12:27:21.614Z,57.80
2022-12-14T12:29:02.413Z,57.70
2022-12-14T12:30:40.853Z,57.70
2022-12-14T12:32:21.223Z,57.70
2022-12-14T12:34:01.690Z,57.70
2022-12-14T12:35:43.447Z,57.70
2022-12-14T12:37:27.122Z,57.70
2022-12-14T12:39:06.507Z,57.60
2022-12-14T12:40:55.929Z,57.60
2022-12-14T12:42:42.880Z,57.60
2022-12-14T12:44:35.880Z,57.70
2022-12-14T12:46:17.657Z,57.60
2022-12-14T12:48:00.258Z,57.60
2022-12-14T12:49:34.968Z,57.70
2022-12-14T12:51:16.530Z,57.90
2022-12-14T12:53:03.760Z,58.10
2022-12-14T12:54:43.977Z,58.30
2022-12-14T12:56:22.864Z,58.30
2022-12-14T12:57:59.914Z,58.00
2022-12-14T12:59:41.531Z,57.80
2022-12-14T13:01:27.862Z,57.70
2022-12-14T13:03:09.698Z,57.70
2022-12-14T13:04:52.171Z,57.70
2022-12-14T13:06:32.571Z,57.70
2022-12-14T13:08:18.169Z,57.70
2022-12-14T13:10:05.193Z,57.60
2022-12-14T13:11:42.000Z,57.60
2022-12-14T13:13:19.297Z,57.50
2022-12-14T13:14:57.574Z,57.50
2022-12-14T13:16:36.006Z,57.40
2022-12-14T13:18:56.016Z,57.40
2022-12-14T13:20:25.874Z,57.50
2022-12-14T13:22:06.405Z,57.50
2022-12-14T13:23:45.240Z,57.30
2022-12-14T13:25:25.301Z,57.50
2022-12-14T13:27:26.158Z,57.50
2022-12-14T13:29:11.837Z,57.50
2022-12-14T13:31:15.986Z,57.50
2022-12-14T13:33:08.898Z,57.40
2022-12-14T13:34:56.410Z,57.30
2022-12-14T13:37:05.550Z,57.30
2022-12-14T13:39:04.966Z,57.30
2022-12-14T13:41:11.485Z,57.30
2022-12-14T13:43:03.240Z,57.40
2022-12-14T13:44:57.463Z,57.40
2022-12-14T13:46:32.502Z,57.40
2022-12-14T13:48:15.427Z,57.40
2022-12-14T13:50:33.674Z,57.30
2022-12-14T13:51:51.612Z,57.20
2022-12-14T13:53:31.134Z,57.10
2022-12-14T13:55:19.395Z,57.10
2022-12-14T13:57:08.955Z,57.00
2022-12-14T13:58:47.337Z,57.00
2022-12-14T14:00:59.447Z,57.00
2022-12-14T14:02:41.754Z,57.00
2022-12-14T14:04:24.007Z,57.00
2022-12-14T14:06:02.193Z,57.10
2022-12-14T14:07:57.851Z,57.20
2022-12-14T14:10:01.013Z,57.10
2022-12-14T14:11:58.439Z,57.00
2022-12-14T14:14:12.735Z,57.00
2022-12-14T14:16:26.730Z,57.00
2022-12-14T14:17:53.873Z,57.00
2022-12-14T14:19:29.415Z,56.90
2022-12-14T14:21:32.972Z,57.50
2022-12-14T14:23:56.245Z,56.80
2022-12-14T14:25:43.889Z,56.80
2022-12-14T14:27:21.948Z,56.80
2022-12-14T14:29:24.908Z,56.80
2022-12-14T14:31:01.463Z,56.80
2022-12-14T14:32:40.821Z,56.50
2022-12-14T14:34:24.405Z,56.60
2022-12-14T14:36:10.234Z,56.70
2022-12-14T14:37:54.161Z,56.60
2022-12-14T14:39:56.130Z,56.70
2022-12-14T14:41:37.176Z,56.90
2022-12-14T14:43:28.643Z,56.90
2022-12-14T14:45:07.921Z,56.80
2022-12-14T14:46:49.235Z,56.70
2022-12-14T14:48:33.608Z,56.80
2022-12-14T14:50:22.417Z,56.80
2022-12-14T14:51:59.225Z,56.80
2022-12-14T14:53:35.834Z,56.60
2022-12-14T14:55:53.729Z,56.80
2022-12-14T14:57:57.066Z,56.80
2022-12-14T14:59:50.801Z,56.80
2022-12-14T15:01:30.763Z,56.80
2022-12-14T15:03:06.407Z,56.80
2022-12-14T15:04:47.528Z,56.80
2022-12-14T15:06:29.058Z,56.80
2022-12-14T15:08:03.357Z,56.80
2022-12-14T15:09:45.215Z,56.80
2022-12-14T15:11:22.450Z,56.60
2022-12-14T15:13:06.746Z,56.60
2022-12-14T15:14:48.463Z,56.60
2022-12-14T15:16:33.100Z,56.50
2022-12-14T15:18:21.821Z,56.40
2022-12-14T15:19:56.607Z,56.30
2022-12-14T15:21:29.766Z,56.30
2022-12-14T15:23:03.392Z,56.20
2022-12-14T15:24:41.074Z,56.30
2022-12-14T15:26:19.533Z,56.20
2022-12-14T15:27:54.570Z,56.20
2022-12-14T15:29:29.021Z,56.00
2022-12-14T15:31:02.383Z,56.20
2022-12-14T15:32:39.774Z,56.10
2022-12-14T15:34:20.512Z,56.10
2022-12-14T15:35:53.964Z,56.00
2022-12-14T15:37:34.457Z,56.00
2022-12-14T15:39:07.641Z,56.00
2022-12-14T15:40:41.377Z,56.00
2022-12-14T15:42:18.718Z,56.60
2022-12-14T15:43:58.180Z,55.90
2022-12-14T15:45:42.360Z,56.00
2022-12-14T15:47:28.773Z,56.10
2022-12-14T15:49:08.538Z,56.00
2022-12-14T15:50:46.252Z,55.90
2022-12-14T15:52:30.877Z,55.90
2022-12-14T15:54:08.068Z,55.90
2022-12-14T15:55:44.058Z,55.90
2022-12-14T15:57:21.028Z,55.90
2022-12-14T15:58:56.434Z,55.90
2022-12-14T16:00:29.821Z,55.90
2022-12-14T16:02:16.456Z,55.70
2022-12-14T16:03:54.509Z,55.80
2022-12-14T16:05:30.412Z,55.70
2022-12-14T16:07:09.850Z,55.70
2022-12-14T16:08:52.541Z,55.60
2022-12-14T16:10:31.567Z,55.60
2022-12-14T16:12:08.470Z,55.60
2022-12-14T16:13:45.196Z,55.60
2022-12-14T16:15:21.606Z,55.70
2022-12-14T16:16:55.208Z,55.70
2022-12-14T16:18:28.820Z,55.60
2022-12-14T16:20:18.041Z,55.50
2022-12-14T16:22:19.460Z,55.60
2022-12-14T16:23:52.641Z,55.50
2022-12-14T16:25:26.460Z,55.50
2022-12-14T16:27:02.228Z,55.60
2022-12-14T16:28:38.321Z,55.60
2022-12-14T16:30:22.785Z,55.60
2022-12-14T16:32:03.398Z,55.60
2022-12-14T16:33:39.927Z,55.80
2022-12-14T16:35:22.181Z,55.70
2022-12-14T16:37:31.170Z,55.70
2022-12-14T16:38:59.817Z,55.70
2022-12-14T16:40:36.986Z,55.80
2022-12-14T16:42:21.185Z,55.80
2022-12-14T16:44:01.458Z,55.70
2022-12-14T16:46:09.299Z,55.60
2022-12-14T16:48:08.262Z,55.60
2022-12-14T16:49:43.477Z,55.80
2022-12-14T16:51:44.813Z,55.60
2022-12-14T16:53:26.058Z,55.60
2022-12-14T16:55:19.426Z,55.70
2022-12-14T16:57:01.616Z,55.70
2022-12-14T16:58:37.220Z,55.80
2022-12-14T17:00:24.940Z,55.80
2022-12-14T17:01:58.617Z,55.80
2022-12-14T17:03:33.124Z,55.80
2022-12-14T17:05:16.215Z,55.80
2022-12-14T17:06:54.530Z,55.80
2022-12-14T17:08:29.540Z,55.80
2022-12-14T17:10:03.471Z,55.70
2022-12-14T17:11:37.363Z,55.90
2022-12-14T17:13:11.474Z,56.10
2022-12-14T17:14:49.798Z,56.80
2022-12-14T17:16:23.649Z,56.20
2022-12-14T17:18:00.796Z,56.30
2022-12-14T17:19:39.184Z,56.40
2022-12-14T17:21:23.227Z,56.50
2022-12-14T17:23:00.008Z,56.60
2022-12-14T17:24:38.676Z,56.60
2022-12-14T17:26:22.247Z,56.60
2022-12-14T17:27:56.088Z,56.60
2022-12-14T17:29:31.084Z,56.50
2022-12-14T17:31:06.631Z,56.50
2022-12-14T17:32:40.005Z,56.60
2022-12-14T17:34:13.359Z,56.70
2022-12-14T17:35:46.496Z,56.70
2022-12-14T17:37:23.891Z,56.80
2022-12-14T17:39:54.358Z,56.70
2022-12-14T17:41:28.644Z,56.80
2022-12-14T17:43:02.880Z,56.80
2022-12-14T17:44:36.215Z,56.80
2022-12-14T17:46:10.037Z,56.90
2022-12-14T17:47:43.240Z,56.80
2022-12-14T17:49:33.728Z,56.80
2022-12-14T17:51:08.018Z,56.90
2022-12-14T17:52:41.262Z,56.80
2022-12-14T17:54:18.663Z,56.70
2022-12-14T17:55:53.947Z,56.50
2022-12-14T17:57:27.785Z,56.40
2022-12-14T17:59:03.072Z,56.30
2022-12-14T18:00:54.985Z,56.20
2022-12-14T18:02:34.274Z,56.30
2022-12-14T18:04:07.976Z,56.40
2022-12-14T18:05:48.306Z,56.30
2022-12-14T18:07:22.222Z,56.20
2022-12-14T18:08:55.625Z,56.00
2022-12-14T18:10:29.433Z,55.90
2022-12-14T18:13:59.288Z,55.50
2022-12-14T18:15:41.303Z,55.50
2022-12-14T18:17:14.769Z,55.60
2022-12-14T18:18:49.949Z,55.60
2022-12-14T18:20:26.301Z,55.70
2022-12-14T18:21:59.607Z,55.50
2022-12-14T18:23:35.176Z,55.50
2022-12-14T18:25:27.806Z,55.50
2022-12-14T18:27:01.215Z,55.40
2022-12-14T18:28:37.602Z,55.40
2022-12-14T18:30:13.146Z,55.40
2022-12-14T18:31:49.686Z,55.50
2022-12-14T18:33:27.914Z,55.50
2022-12-14T18:35:01.546Z,55.50
2022-12-14T18:36:35.851Z,55.40
2022-12-14T18:38:09.121Z,55.30
2022-12-14T18:39:42.323Z,55.20
2022-12-14T18:41:17.905Z,55.20
2022-12-14T18:42:52.643Z,55.20
2022-12-14T18:44:28.293Z,55.20
2022-12-14T18:46:03.032Z,55.10
2022-12-14T18:47:43.961Z,55.20
2022-12-14T18:49:20.398Z,54.90
2022-12-14T18:50:56.506Z,54.80
2022-12-14T18:52:29.815Z,54.90
2022-12-14T18:54:06.644Z,54.80
2022-12-14T18:55:42.131Z,54.50
2022-12-14T18:57:17.067Z,54.80
2022-12-14T18:58:51.770Z,54.80
2022-12-14T19:00:30.745Z,54.80
2022-12-14T19:02:04.185Z,54.80
2022-12-14T19:03:45.737Z,54.70
2022-12-14T19:05:26.299Z,54.70
2022-12-14T19:07:01.650Z,54.70
2022-12-14T19:08:35.476Z,54.60
2022-12-14T19:10:15.816Z,54.70
2022-12-14T19:11:49.691Z,54.90
2022-12-14T19:13:25.983Z,54.80
2022-12-14T19:14:59.766Z,54.70
2022-12-14T19:16:35.285Z,54.70
2022-12-14T19:18:08.831Z,54.70
2022-12-14T19:19:44.574Z,54.70
2022-12-14T19:21:18.640Z,54.60
2022-12-14T19:22:52.989Z,54.70
2022-12-14T19:24:28.635Z,54.80
2022-12-14T19:26:02.713Z,54.60
2022-12-14T19:28:20.038Z,54.60
2022-12-14T19:29:33.109Z,54.70
2022-12-14T19:31:10.607Z,54.70
2022-12-14T19:32:45.350Z,54.60
2022-12-14T19:34:22.482Z,54.50
2022-12-14T19:35:56.363Z,54.60
2022-12-14T19:37:29.996Z,54.60
2022-12-14T19:39:03.502Z,54.30
2022-12-14T19:40:37.063Z,54.70
2022-12-14T19:42:10.591Z,54.70
2022-12-14T19:43:44.454Z,54.60
2022-12-14T19:45:19.567Z,54.70
2022-12-14T19:46:53.956Z,54.70
2022-12-14T19:48:29.110Z,54.70
2022-12-14T19:50:10.084Z,54.70
2022-12-14T19:51:43.485Z,54.70
2022-12-14T19:53:23.035Z,54.60
2022-12-14T19:54:57.252Z,54.50
2022-12-14T19:56:30.724Z,54.60
2022-12-14T19:58:04.782Z,54.70
2022-12-14T19:59:38.167Z,54.70
2022-12-14T20:01:13.846Z,54.80
2022-12-14T20:02:49.530Z,55.00
2022-12-14T20:04:25.396Z,54.70
2022-12-14T20:06:00.482Z,54.70
2022-12-14T20:07:37.433Z,54.80
2022-12-14T20:09:19.868Z,54.70
2022-12-14T20:10:53.999Z,54.60
2022-12-14T20:12:34.156Z,54.50
2022-12-14T20:14:07.715Z,54.50
2022-12-14T20:15:41.400Z,54.50
2022-12-14T20:17:15.377Z,54.40
2022-12-14T20:18:49.637Z,54.40
2022-12-14T20:20:26.659Z,54.60
2022-12-14T20:22:00.315Z,54.60
2022-12-14T20:23:35.918Z,54.60
2022-12-14T20:25:11.182Z,54.60
2022-12-14T20:26:44.605Z,54.60
2022-12-14T20:28:17.964Z,55.20
2022-12-14T20:29:51.384Z,54.50
2022-12-14T20:31:26.097Z,54.50
2022-12-14T20:32:59.489Z,54.50
2022-12-14T20:34:33.144Z,54.50
2022-12-14T20:36:09.314Z,54.40
2022-12-14T20:37:43.100Z,54.60
2022-12-14T20:39:16.563Z,54.60
2022-12-14T20:40:49.849Z,54.50
2022-12-14T20:42:23.251Z,54.50
2022-12-14T20:43:57.280Z,54.70
2022-12-14T20:45:30.986Z,54.70
2022-12-14T20:47:05.655Z,54.70
2022-12-14T20:48:39.007Z,54.70
2022-12-14T20:50:12.699Z,54.70
2022-12-14T20:51:49.365Z,54.60
2022-12-14T20:53:24.349Z,54.70
2022-12-14T20:54:59.608Z,54.50
2022-12-14T20:56:32.933Z,54.60
2022-12-14T20:58:07.246Z,54.40
2022-12-14T20:59:40.557Z,54.30
2022-12-14T21:01:14.352Z,54.30
2022-12-14T21:02:47.854Z,54.30
2022-12-14T21:04:23.104Z,54.20
2022-12-14T21:06:00.405Z,54.20
2022-12-14T21:07:35.250Z,54.20
2022-12-14T21:09:13.108Z,54.20
2022-12-14T21:10:46.362Z,54.20
2022-12-14T21:12:21.561Z,54.10
2022-12-14T21:13:55.293Z,54.20
2022-12-14T21:15:28.718Z,54.10
2022-12-14T21:17:03.804Z,54.20
2022-12-14T21:18:37.094Z,54.20
2022-12-14T21:20:14.022Z,54.10
2022-12-14T21:21:53.220Z,54.10
2022-12-14T21:23:29.148Z,54.10